X  Schließen METAR Luftfahrt Wetterdaten     EDTY Adolf Würth Airport
Temperatur
15°C Temperatur
11°C Taupunkt
77% Feuchtigkeit



Wind
3 KM/S
2 MPS
1 M/S
2 KTS



Kein Wind
Nord
Aktuelle Wetterlage

Klar Klar
Luftdruck 1020.92 (hPa) - 30.15 (inHg)
Sichtweite 6.2 (Meile) - 10 (Km)
Flughafen
Flughafen Code EDTY

Position : Adolf Würth Airport
Entfernung: 59 (Km)

Metar:
EDTY 050550Z VRB02KT CAVOK 15/11 Q1021

Zeit: 05-07-2022 07:50 CEST